createdAt,value
2022-11-30T00:02:18.305Z,100819.41
2022-11-30T00:04:48.003Z,100819.25
2022-11-30T00:07:20.820Z,100813.09
2022-11-30T00:09:52.581Z,100813.53
2022-11-30T00:12:22.368Z,100811.34
2022-11-30T00:14:52.663Z,100811.88
2022-11-30T00:17:24.500Z,100803.88
2022-11-30T00:20:08.209Z,100791.34
2022-11-30T00:22:39.602Z,100789.00
2022-11-30T00:25:10.199Z,100790.69
2022-11-30T00:27:40.206Z,100788.66
2022-11-30T00:30:11.920Z,100785.28
2022-11-30T00:32:46.654Z,100778.97
2022-11-30T00:35:20.369Z,100788.00
2022-11-30T00:37:51.616Z,100789.00
2022-11-30T00:40:20.248Z,100788.66
2022-11-30T00:42:50.336Z,100781.94
2022-11-30T00:45:20.656Z,100777.59
2022-11-30T00:47:52.028Z,100782.22
2022-11-30T00:50:23.421Z,100781.94
2022-11-30T00:52:54.021Z,100787.94
2022-11-30T00:55:23.956Z,100783.94
2022-11-30T00:58:00.415Z,100781.59
2022-11-30T01:00:32.053Z,100782.75
2022-11-30T01:03:03.800Z,100766.19
2022-11-30T01:05:38.127Z,100762.97
2022-11-30T01:08:08.599Z,100758.63
2022-11-30T01:10:40.520Z,100752.28
2022-11-30T01:13:15.857Z,100754.63
2022-11-30T01:15:45.549Z,100755.09
2022-11-30T01:18:18.179Z,100754.09
2022-11-30T01:20:47.877Z,100746.25
2022-11-30T01:23:20.573Z,100755.56
2022-11-30T01:26:00.106Z,100749.78
2022-11-30T01:28:33.893Z,100742.19
2022-11-30T01:31:22.616Z,100739.00
2022-11-30T01:33:55.349Z,100728.78
2022-11-30T01:36:34.222Z,100728.25
2022-11-30T01:39:03.574Z,100725.19
2022-11-30T01:41:34.307Z,100722.22
2022-11-30T01:44:09.923Z,100714.63
2022-11-30T01:46:46.718Z,100716.94
2022-11-30T01:49:23.497Z,100713.63
2022-11-30T01:52:11.350Z,100719.31
2022-11-30T01:55:03.483Z,100713.72
2022-11-30T01:57:55.460Z,100714.28
2022-11-30T02:00:32.967Z,100714.81
2022-11-30T02:03:07.879Z,100713.50
2022-11-30T02:05:49.702Z,100710.47
2022-11-30T02:08:22.822Z,100696.69
2022-11-30T02:11:03.359Z,100692.03
2022-11-30T02:13:38.047Z,100699.47
2022-11-30T02:16:42.835Z,100704.34
2022-11-30T02:20:16.398Z,100717.56
2022-11-30T02:23:10.775Z,100735.75
2022-11-30T02:26:08.142Z,100747.94
2022-11-30T02:29:03.094Z,100756.63
2022-11-30T02:31:51.711Z,100763.16
2022-11-30T02:34:38.913Z,100756.47
2022-11-30T02:37:16.936Z,100743.16
2022-11-30T02:39:51.427Z,100735.22
2022-11-30T02:42:22.165Z,100729.75
2022-11-30T02:44:54.549Z,100717.06
2022-11-30T02:47:46.228Z,100712.97
2022-11-30T02:51:01.069Z,100726.09
2022-11-30T02:53:34.926Z,100718.44
2022-11-30T02:56:08.096Z,100725.91
2022-11-30T02:58:39.871Z,100734.28
2022-11-30T03:01:13.658Z,100739.31
2022-11-30T03:03:46.323Z,100741.38
2022-11-30T03:06:19.323Z,100730.69
2022-11-30T03:08:52.486Z,100720.50
2022-11-30T03:11:46.066Z,100722.78
2022-11-30T03:14:16.497Z,100719.50
2022-11-30T03:16:52.517Z,100710.78
2022-11-30T03:19:24.060Z,100710.78
2022-11-30T03:22:01.917Z,100701.56
2022-11-30T03:24:35.130Z,100699.56
2022-11-30T03:27:12.441Z,100690.34
2022-11-30T03:29:46.801Z,100690.16
2022-11-30T03:32:16.233Z,100680.09
2022-11-30T03:34:51.169Z,100682.63
2022-11-30T03:37:21.056Z,100684.22
2022-11-30T03:39:57.786Z,100678.75
2022-11-30T03:42:36.044Z,100661.63
2022-11-30T03:45:10.220Z,100663.78
2022-11-30T03:47:40.460Z,100661.28
2022-11-30T03:50:10.753Z,100649.25
2022-11-30T03:52:40.511Z,100634.75
2022-11-30T03:55:10.496Z,100636.22
2022-11-30T03:57:41.007Z,100632.47
2022-11-30T04:00:11.769Z,100631.97
2022-11-30T04:02:45.792Z,100644.41
2022-11-30T04:05:15.317Z,100639.47
2022-11-30T04:07:44.582Z,100650.56
2022-11-30T04:10:16.476Z,100644.53
2022-11-30T04:12:48.985Z,100630.88
2022-11-30T04:15:21.042Z,100625.44
2022-11-30T04:18:02.105Z,100611.47
2022-11-30T04:20:42.384Z,100630.16
2022-11-30T04:23:18.819Z,100632.00
2022-11-30T04:25:50.684Z,100643.56
2022-11-30T04:28:22.327Z,100632.19
2022-11-30T04:31:00.024Z,100629.84
2022-11-30T04:33:32.283Z,100637.94
2022-11-30T04:36:07.709Z,100623.22
2022-11-30T04:38:38.737Z,100624.56
2022-11-30T04:41:10.745Z,100634.34
2022-11-30T04:43:42.161Z,100623.63
2022-11-30T04:46:14.380Z,100617.63
2022-11-30T04:48:45.067Z,100610.69
2022-11-30T04:51:16.576Z,100610.31
2022-11-30T04:53:49.973Z,100602.13
2022-11-30T04:56:19.987Z,100580.16
2022-11-30T04:58:52.242Z,100573.28
2022-11-30T05:01:23.283Z,100555.22
2022-11-30T05:03:52.194Z,100544.34
2022-11-30T05:06:24.116Z,100518.28
2022-11-30T05:09:04.344Z,100503.66
2022-11-30T05:11:35.731Z,100511.78
2022-11-30T05:14:07.396Z,100522.03
2022-11-30T05:16:36.776Z,100519.28
2022-11-30T05:19:16.696Z,100516.41
2022-11-30T05:21:48.241Z,100508.56
2022-11-30T05:24:19.017Z,100519.84
2022-11-30T05:26:48.964Z,100530.38
2022-11-30T05:29:58.047Z,100534.91
2022-11-30T05:32:35.532Z,100528.50
2022-11-30T05:35:06.694Z,100522.28
2022-11-30T05:37:36.697Z,100524.91
2022-11-30T05:40:14.712Z,100519.59
2022-11-30T05:42:44.457Z,100503.38
2022-11-30T05:45:15.992Z,100497.69
2022-11-30T05:47:48.360Z,100498.56
2022-11-30T05:50:22.285Z,100490.28
2022-11-30T05:53:04.126Z,100479.44
2022-11-30T05:55:40.150Z,100462.84
2022-11-30T05:58:10.939Z,100445.97
2022-11-30T06:00:46.582Z,100430.16
2022-11-30T06:03:16.748Z,100438.25
2022-11-30T06:05:55.048Z,100432.25
2022-11-30T06:08:36.440Z,100414.72
2022-11-30T06:11:12.038Z,100409.59
2022-11-30T06:13:44.467Z,100420.34
2022-11-30T06:16:19.647Z,100406.25
2022-11-30T06:18:50.543Z,100405.53
2022-11-30T06:21:24.466Z,100369.25
2022-11-30T06:24:08.068Z,100400.44
2022-11-30T06:26:42.465Z,100403.13
2022-11-30T06:29:16.474Z,100397.13
2022-11-30T06:31:57.865Z,100383.28
2022-11-30T06:34:49.290Z,100396.94
2022-11-30T06:37:43.338Z,100402.97
2022-11-30T06:40:19.443Z,100402.31
2022-11-30T06:43:08.576Z,100395.31
2022-11-30T06:46:15.089Z,100379.38
2022-11-30T06:48:58.622Z,100389.22
2022-11-30T06:51:41.073Z,100398.91
2022-11-30T06:54:12.451Z,100386.72
2022-11-30T06:56:44.099Z,100392.03
2022-11-30T06:59:20.292Z,100398.91
2022-11-30T07:02:10.742Z,100410.69
2022-11-30T07:04:43.935Z,100412.53
2022-11-30T07:07:15.193Z,100406.47
2022-11-30T07:09:44.751Z,100409.06
2022-11-30T07:12:16.749Z,100414.06
2022-11-30T07:15:03.495Z,100398.69
2022-11-30T07:17:44.381Z,100381.59
2022-11-30T07:20:24.699Z,100397.56
2022-11-30T07:23:44.361Z,100395.94
2022-11-30T07:26:19.855Z,100378.28
2022-11-30T07:29:03.855Z,100378.97
2022-11-30T07:31:44.460Z,100368.91
2022-11-30T09:34:42.144Z,100178.00
2022-11-30T09:37:11.696Z,100162.59
2022-11-30T09:39:39.942Z,100149.16
2022-11-30T09:42:19.658Z,100130.56
2022-11-30T09:45:03.862Z,100125.41
2022-11-30T09:47:41.225Z,100127.91
2022-11-30T09:50:16.148Z,100129.56
2022-11-30T09:53:06.985Z,100122.13
2022-11-30T09:55:43.538Z,100123.00
2022-11-30T09:58:35.042Z,100110.97
2022-11-30T10:01:07.385Z,100104.13
2022-11-30T10:03:36.313Z,100103.16
2022-11-30T10:06:27.874Z,100106.06
2022-11-30T10:09:22.171Z,100109.78
2022-11-30T10:12:12.000Z,100121.47
2022-11-30T10:14:47.678Z,100112.09
2022-11-30T10:17:51.625Z,100114.25
2022-11-30T10:20:39.970Z,100115.75
2022-11-30T10:23:46.351Z,100130.03
2022-11-30T10:26:39.810Z,100126.22
2022-11-30T10:29:23.426Z,100119.78
2022-11-30T10:31:59.860Z,100112.44
2022-11-30T10:34:37.135Z,100119.50
2022-11-30T10:37:18.019Z,100126.69
2022-11-30T10:39:59.873Z,100125.81
2022-11-30T10:42:42.341Z,100121.91
2022-11-30T10:45:18.189Z,100127.91
2022-11-30T10:48:08.696Z,100127.28
2022-11-30T10:50:38.758Z,100117.38
2022-11-30T10:53:08.140Z,100116.53
2022-11-30T10:56:04.026Z,100115.31
2022-11-30T10:58:40.478Z,100114.13
2022-11-30T11:01:30.642Z,100106.88
2022-11-30T11:04:21.162Z,100118.13
2022-11-30T11:07:09.362Z,100106.69
2022-11-30T11:09:59.753Z,100102.28
2022-11-30T11:12:31.777Z,100092.31
2022-11-30T11:15:26.084Z,100085.38
2022-11-30T11:18:28.920Z,100067.16
2022-11-30T11:21:32.714Z,100062.34
2022-11-30T11:24:11.374Z,100054.03
2022-11-30T11:26:51.811Z,100049.69
2022-11-30T11:29:32.561Z,100046.72
2022-11-30T11:32:20.446Z,100049.19
2022-11-30T11:34:52.007Z,100042.63
2022-11-30T11:37:39.180Z,100049.19
2022-11-30T11:40:17.355Z,100041.34
2022-11-30T11:59:16.342Z,100018.25
2022-11-30T12:03:32.885Z,100004.91
2022-11-30T12:07:05.361Z,99989.28
2022-11-30T12:10:43.483Z,100001.09
2022-11-30T12:13:46.827Z,99991.63
2022-11-30T12:17:16.910Z,99977.22
2022-11-30T12:31:15.635Z,99981.00
2022-11-30T12:53:35.640Z,99932.75
2022-11-30T12:56:24.959Z,99926.53
2022-11-30T12:59:20.207Z,99926.50
2022-11-30T13:03:03.884Z,99924.81
2022-11-30T13:11:50.395Z,99900.44
2022-11-30T13:35:05.403Z,99831.38
2022-11-30T13:38:02.707Z,99821.53
2022-11-30T13:41:11.708Z,99830.06
2022-11-30T14:05:37.209Z,99780.09
2022-11-30T14:09:17.778Z,99775.88
2022-11-30T14:15:49.174Z,99743.50
2022-11-30T14:18:43.141Z,99744.97
2022-11-30T14:21:19.355Z,99729.78
2022-11-30T14:24:25.111Z,99713.97
2022-11-30T14:27:25.331Z,99694.13
2022-11-30T14:30:23.404Z,99683.94
2022-11-30T14:33:03.625Z,99685.81
2022-11-30T14:35:48.856Z,99673.75
2022-11-30T14:38:48.020Z,99675.28
2022-11-30T14:41:36.651Z,99677.94
2022-11-30T14:44:16.509Z,99671.50
2022-11-30T14:46:55.293Z,99656.13
2022-11-30T14:49:35.293Z,99641.38
2022-11-30T14:52:08.842Z,99629.78
2022-11-30T14:55:14.909Z,99613.44
2022-11-30T14:58:49.143Z,99574.59
2022-11-30T15:06:18.060Z,99518.00
2022-11-30T15:09:48.540Z,99526.44
2022-11-30T15:13:00.540Z,99554.13
2022-11-30T15:16:25.029Z,99552.66
2022-11-30T15:19:48.867Z,99558.16
2022-11-30T15:22:52.743Z,99540.16
2022-11-30T15:26:23.480Z,99540.09
2022-11-30T15:29:13.430Z,99547.06
2022-11-30T15:31:52.683Z,99563.06
2022-11-30T15:34:45.557Z,99561.38
2022-11-30T15:37:23.111Z,99567.47
2022-11-30T15:40:19.763Z,99600.59
2022-11-30T15:42:52.659Z,99588.94
2022-11-30T15:45:41.377Z,99566.50
2022-11-30T15:48:36.129Z,99531.38
2022-11-30T15:51:11.811Z,99514.94
2022-11-30T15:54:02.696Z,99494.25
2022-11-30T15:56:35.909Z,99486.16
2022-11-30T15:59:16.723Z,99498.38
2022-11-30T16:02:09.169Z,99497.69
2022-11-30T16:05:00.996Z,99505.63
2022-11-30T16:07:36.357Z,99501.69
2022-11-30T16:10:13.430Z,99481.84
2022-11-30T16:12:49.140Z,99487.00
2022-11-30T16:15:24.873Z,99460.78
2022-11-30T16:18:25.043Z,99440.16
2022-11-30T16:21:16.572Z,99426.69
2022-11-30T16:23:52.338Z,99425.69
2022-11-30T16:26:43.518Z,99419.31
2022-11-30T16:29:14.886Z,99425.22
2022-11-30T16:31:46.325Z,99405.56
2022-11-30T16:34:18.869Z,99405.53
2022-11-30T16:36:53.334Z,99404.66
2022-11-30T16:39:39.883Z,99397.03
2022-11-30T16:42:16.127Z,99403.19
2022-11-30T16:44:49.163Z,99409.59
2022-11-30T16:48:40.822Z,99390.88
2022-11-30T16:51:59.590Z,99375.88
2022-11-30T16:54:39.158Z,99371.38
2022-11-30T16:57:28.921Z,99369.94
2022-11-30T17:00:27.426Z,99349.31
2022-11-30T17:04:07.189Z,99339.81
2022-11-30T17:07:21.892Z,99354.59
2022-11-30T17:33:52.229Z,99294.44
2022-11-30T17:46:03.674Z,99254.16
2022-11-30T17:48:36.873Z,99250.63
2022-11-30T17:51:12.684Z,99244.72
2022-11-30T17:53:49.101Z,99238.84
2022-11-30T17:56:24.815Z,99234.81
2022-11-30T17:59:32.459Z,99233.31
2022-11-30T18:02:20.761Z,99233.03
2022-11-30T18:04:59.602Z,99227.81
2022-11-30T18:07:37.186Z,99231.41
2022-11-30T18:10:32.006Z,99227.88
2022-11-30T18:13:17.933Z,99220.50
2022-11-30T18:15:53.098Z,99210.34
2022-11-30T18:18:42.954Z,99193.22
2022-11-30T18:25:00.165Z,99173.41
2022-11-30T18:27:47.882Z,99179.31
2022-11-30T18:30:43.782Z,99173.56
2022-11-30T18:33:33.678Z,99174.44
2022-11-30T18:36:12.128Z,99176.47
2022-11-30T18:38:55.129Z,99168.06
2022-11-30T18:41:56.871Z,99162.84
2022-11-30T18:45:17.599Z,99176.25
2022-11-30T18:48:13.320Z,99172.34
2022-11-30T18:50:50.929Z,99157.13
2022-11-30T18:53:37.761Z,99168.47
2022-11-30T18:56:25.238Z,99155.03
2022-11-30T18:59:36.730Z,99159.19
2022-11-30T19:02:43.548Z,99145.41
2022-11-30T19:06:13.150Z,99141.94
2022-11-30T19:08:52.758Z,99155.66
2022-11-30T19:11:45.552Z,99142.63
2022-11-30T19:14:23.979Z,99147.78
2022-11-30T19:17:00.990Z,99139.13
2022-11-30T19:19:49.091Z,99128.06
2022-11-30T19:22:35.375Z,99127.28
2022-11-30T19:25:19.980Z,99128.66
2022-11-30T19:27:52.611Z,99150.09
2022-11-30T19:30:41.260Z,99153.06
2022-11-30T19:33:26.985Z,99160.38
2022-11-30T19:36:23.211Z,99170.94
2022-11-30T19:39:36.654Z,99171.53
2022-11-30T19:42:21.771Z,99178.53
2022-11-30T19:45:13.483Z,99218.91
2022-11-30T19:51:18.290Z,99293.22
2022-11-30T19:54:11.652Z,99311.34
2022-11-30T19:56:49.528Z,99336.69
2022-11-30T19:59:35.868Z,99339.25
2022-11-30T20:02:11.136Z,99345.53
2022-11-30T20:04:44.317Z,99354.84
2022-11-30T20:07:16.496Z,99360.00
2022-11-30T20:09:49.390Z,99350.66
2022-11-30T20:12:47.593Z,99345.84
2022-11-30T20:15:24.071Z,99356.25
2022-11-30T20:17:59.897Z,99360.97
2022-11-30T20:20:34.563Z,99378.44
2022-11-30T20:23:08.210Z,99382.81
2022-11-30T20:25:39.050Z,99396.88
2022-11-30T20:34:00.538Z,99394.75
2022-11-30T20:36:49.154Z,99401.03
2022-11-30T20:50:40.381Z,99451.63
2022-11-30T20:53:44.236Z,99453.22
2022-11-30T20:57:00.341Z,99455.19
2022-11-30T21:00:13.287Z,99463.94
2022-11-30T21:02:52.542Z,99472.50
2022-11-30T21:05:43.589Z,99473.78
2022-11-30T21:08:15.781Z,99477.75
2022-11-30T21:10:45.258Z,99478.53
2022-11-30T21:13:16.865Z,99488.41
2022-11-30T21:15:51.896Z,99487.34
2022-11-30T21:18:24.711Z,99497.88
2022-11-30T21:21:19.418Z,99502.91
2022-11-30T21:23:50.477Z,99497.88
2022-11-30T21:26:33.446Z,99511.56
2022-11-30T21:29:13.543Z,99520.34
2022-11-30T21:31:47.839Z,99518.44
2022-11-30T21:34:21.564Z,99526.38
2022-11-30T21:37:00.904Z,99521.50
2022-11-30T21:40:12.818Z,99523.78
2022-11-30T21:42:47.737Z,99537.44
2022-11-30T21:45:19.975Z,99566.31
2022-11-30T21:47:51.461Z,99588.59
2022-11-30T21:50:26.911Z,99588.50
2022-11-30T21:53:03.888Z,99599.47
2022-11-30T21:55:36.380Z,99609.19
2022-11-30T21:58:09.942Z,99615.72
2022-11-30T22:00:43.116Z,99627.34
2022-11-30T22:03:21.551Z,99643.06
2022-11-30T22:06:05.671Z,99667.28
2022-11-30T22:08:41.346Z,99666.25
2022-11-30T22:11:21.637Z,99669.53
2022-11-30T22:14:08.088Z,99684.41
2022-11-30T22:16:40.451Z,99675.38
2022-11-30T22:19:13.111Z,99694.22
2022-11-30T22:21:50.245Z,99696.44
2022-11-30T22:24:23.980Z,99702.75
2022-11-30T22:27:01.378Z,99708.16
2022-11-30T22:29:39.892Z,99728.25
2022-11-30T22:32:09.425Z,99729.59
2022-11-30T22:34:43.293Z,99741.59
2022-11-30T22:37:14.582Z,99744.69
2022-11-30T22:39:47.758Z,99769.13
2022-11-30T22:42:19.548Z,99770.81
2022-11-30T22:44:52.962Z,99780.75
2022-11-30T22:47:31.755Z,99799.09
2022-11-30T22:50:03.914Z,99800.97
2022-11-30T22:53:01.476Z,99786.50
2022-11-30T22:55:33.984Z,99786.94
2022-11-30T22:58:05.398Z,99799.94
2022-11-30T23:00:41.394Z,99802.41
2022-11-30T23:03:17.383Z,99816.00
2022-11-30T23:05:49.337Z,99821.75
2022-11-30T23:08:21.257Z,99828.47
2022-11-30T23:11:05.184Z,99829.59
2022-11-30T23:13:44.525Z,99839.50
2022-11-30T23:16:16.888Z,99852.44
2022-11-30T23:18:58.529Z,99854.88
2022-11-30T23:21:42.069Z,99860.84
2022-11-30T23:24:21.592Z,99865.41
2022-11-30T23:26:55.589Z,99866.19
2022-11-30T23:29:41.529Z,99877.88
2022-11-30T23:32:12.747Z,99895.84
2022-11-30T23:34:50.781Z,99899.56
2022-11-30T23:37:21.786Z,99915.69
2022-11-30T23:39:53.645Z,99907.72
2022-11-30T23:42:32.872Z,99924.38
2022-11-30T23:45:06.627Z,99928.81
2022-11-30T23:47:36.916Z,99942.91
2022-11-30T23:50:09.394Z,99935.28
2022-11-30T23:52:41.695Z,99946.56
2022-11-30T23:55:19.440Z,99939.25
2022-11-30T23:57:51.610Z,99943.66
